Share

Latta, SC

RAWS MARION 01 SC US (MMRWS1) Elev 92 ft | 34.18 °N, 79.33 °W | Change Station

Current weather conditions updated 53 minutes ago

Clear
Clear
57 °F
Feels Like 57 °F
N
6
Wind Variable Wind from NE
Gusts 17.0 mph
Sunrise 6:39 AM
Sunset 7:54 PM
Moon Waning Gibbous

Today is forecast to be Much Warmer than yesterday.

Pressure 30.12 in
Visibility 10.0 miles
Clouds Clear
Dew Point 45 °F
Humidity 64%
Rainfall 0.00 in
Snow Depth Not available.
UV 5 out of 16
Pollen 8.20 out of 12
Air Quality Not available.
Flu Activity Local Activity
METAR KMAO 211355Z AUTO 36011KT 10SM CLR 14/07 A3012 RMK AO2

More Conditions Fewer Conditions

Pressure 30.12 in
Visibility 10.0 miles
Clouds Clear
Dew Point 45 °F
Humidity 64%
Rainfall 0.00 in
Snow Depth Not available.
UV 5 out of 16
Pollen 8.20 out of 12
Air Quality Not available.
Flu Activity Local Activity
METAR KMAO 211355Z AUTO 36011KT 10SM CLR 14/07 A3012 RMK AO2

More Conditions Fewer Conditions

10-Day Weather Forecast

Almanac

Astronomy

Apr. 21, 2014 Rise Set
Actual Time 6:39 AM EDT 7:54 PM EDT
Civil Twilight 6:13 AM EDT 8:20 PM EDT
Nautical Twilight 5:41 AM EDT 8:51 PM EDT
Astronomical Twilight 5:09 AM EDT 9:24 PM EDT
Moon 1:19 AM EDT 12:07 PM EDT
Length of Visible Light 14h 07m
Length of Day
13h 15m
Tomorrow will be 1m 58s longer.
Waning Gibbous, 59% of the Moon is Illuminated
Today
Waning Gibbous
Apr 22
Last Quarter
Apr 29
New
May 6
First Quarter
May 14
Full

Today's Extremes

State Highs State Lows

Community

  • Bright Eyes
    Bright Eyes
  • Snowy Robin
    Snowy Robin
  • Sun Pillar and Geese
    Sun Pillar and Geese
  • Showers on the Way
    Showers on the Way
  • Easter Morning Fog
    Easter Morning Fog

WunderPhotos

Upload Photos

1,703,621 photos uploaded!

Nearby

Air Quality

  Air Quality AQ Index Pollutant
Yesterday Good
PM2.5
Monday Good
OZONE

Snow Depth

Station Depth Elevation
No new snow has been reported.

Coastal Water Temperatures

Place Temperature
No Stations Reporting

Earthquake Activity

City Distance Mag. Time & Date
No recent earthquake activity has been reported nearby.
Minimum magnitude displayed is 2.5.

Nearby Weather Stations

Station Location Temp. Dew Point Humidity Wind Precip. Elev Updated Type
RAWS MARION 01 SC, Marion, SC 57 °F 45 °F 64% NE  at  6 mph 0.00 in / hr 92 ft 9:07 AM EDT MADIS
Mechanicsville, Darlington, SC 60.6 °F 48 °F 63% ENE  at  5.0 mph 0.00 in / hr 144 ft 9:59 AM EDT Rapid Fire
Cottingham Creek, Bennettsville, SC 53.7 °F 46 °F 76% NNW  at  2.0 mph 0.00 in / hr 143 ft 9:58 AM EDT Rapid Fire
RL Fogle, Nichols, SC 59.5 °F 52 °F 75% NNW  at  0.0 mph 0.00 in / hr 75 ft 9:59 AM EDT Rapid Fire
The Abbeys, Florence, SC 58.3 °F 49 °F 71% NNW  at  3.7 mph - / hr 115 ft 9:56 AM EDT Normal

Show More Stations Show Fewer Stations

What do you think?

We're not finished. Please let us know what you like, what you don't like, and what you are still missing.